Muscat, Oman
Current Conditions -  °F | °C
As of 10:50 PM on Thursday 23 Oct 2014 (Local Time) from OOMS Reporting Station
Clear Clear  
Wind Chill: 84°   Ceiling: Unl
Heat Index: 86°   Visibility: 6mi
Dew Point: 66°   Wind: 3mph
Humidity: 55%   Direction: 180°S
Pressure: 29.88"   Gusts: NA
Location:  23.61°N, 58.54°E
Report Text: OOMS 231850Z 18003KT 150V220 9000 NSC 29/19 Q1012 NOSIG
Loading
Personal Weather Stations






























Interactive Weather Map New forecast layout! Learn more

10-Day Weather Forecast

Advertisements
Track Severe Weather on mobile